Time;durP1;ratioP1;P1;durP2;ratioP2;P2;SDS_P1;SDS_P2;PMS_P1;PMS_P2;Temp;Humidity;BMP_temperature;BMP_pressure;BME280_temperature;BME280_humidity;BME280_pressure;Samples;Min_cycle;Max_cycle;Signal;HPM_P1;HPM_P2
2022/05/03 00:01:27;80621.00;0.27;140.11;0.00;0.00;0.62;;;;;16.50;1.00;;;;;;2284577;60;1273;-86
2022/05/03 00:04:06;0.00;0.00;0.62;0.00;0.00;0.62;;;;;16.50;1.00;;;;;;2284586;60;1108;-85
2022/05/03 00:06:44;33557.00;0.11;58.74;0.00;0.00;0.62;;;;;16.50;1.00;;;;;;2284603;60;1115;-86
2022/05/03 00:09:21;60004.00;0.20;104.48;0.00;0.00;0.62;;;;;16.60;1.00;;;;;;2284536;60;1034;-85
2022/05/03 00:11:55;59881.00;0.20;104.27;0.00;0.00;0.62;;;;;16.60;1.00;;;;;;2284577;60;1411;-86
2022/05/03 00:14:29;5224.00;0.02;9.67;0.00;0.00;0.62;;;;;16.60;1.00;;;;;;2284543;60;1913;-85
2022/05/03 00:16:57;68775.00;0.23;119.64;0.00;0.00;0.62;;;;;16.50;1.00;;;;;;2284541;60;1062;-86
2022/05/03 00:19:25;67911.00;0.23;118.15;0.00;0.00;0.62;;;;;16.40;1.00;;;;;;2284514;60;1660;-86
2022/05/03 00:21:53;102359.00;0.34;177.64;11988.00;0.04;21.39;;;;;16.50;1.00;;;;;;2284495;60;1269;-86
2022/05/03 00:24:20;1987.00;0.01;4.06;0.00;0.00;0.62;;;;;16.60;1.00;;;;;;2284481;60;931;-85
2022/05/03 00:26:48;94629.00;0.32;164.30;0.00;0.00;0.62;;;;;16.50;1.00;;;;;;2284392;60;1138;-85
2022/05/03 00:29:17;57843.00;0.19;100.75;0.00;0.00;0.62;;;;;16.40;1.00;;;;;;2284525;60;1111;-85
2022/05/03 00:31:46;0.00;0.00;0.62;0.00;0.00;0.62;;;;;16.40;1.00;;;;;;2284481;60;1319;-87
2022/05/03 00:34:13;0.00;0.00;0.62;0.00;0.00;0.62;;;;;16.30;1.00;;;;;;2284385;60;1911;-85
2022/05/03 00:36:40;0.00;0.00;0.62;0.00;0.00;0.62;;;;;16.10;1.00;;;;;;2284415;60;1128;-86
2022/05/03 00:39:07;262445.00;0.87;453.35;77752.00;0.26;135.15;;;;;16.50;1.00;;;;;;2284481;60;1090;-84
2022/05/03 00:41:39;0.00;0.00;0.62;0.00;0.00;0.62;;;;;16.60;1.00;;;;;;2284471;60;1381;-86
2022/05/03 00:47:16;283700.00;0.95;489.90;80245.00;0.27;139.46;;;;;16.30;1.00;;;;;;2284423;60;728;-86
2022/05/03 00:49:56;305410.00;1.02;527.22;81993.00;0.27;142.48;;;;;16.40;1.00;;;;;;2284472;60;1086;-85
2022/05/03 00:52:28;295224.00;0.98;509.71;79761.00;0.27;138.62;;;;;16.00;1.00;;;;;;2284506;60;955;-86
2022/05/03 00:55:20;293792.00;0.98;507.25;86270.00;0.29;149.87;;;;;15.90;1.00;;;;;;2284313;60;1932;-86
2022/05/03 00:58:04;154296.00;0.51;267.21;0.00;0.00;0.62;;;;;15.50;1.00;;;;;;2284440;60;1125;-85
2022/05/03 01:00:34;403746.00;1.35;696.24;119566.00;0.40;207.33;;;;;15.40;1.00;;;;;;2284366;60;1363;-87
2022/05/03 01:03:12;0.00;0.00;0.62;0.00;0.00;0.62;;;;;15.10;1.00;;;;;;2284394;60;1107;-86
2022/05/03 01:05:51;0.00;0.00;0.62;0.00;0.00;0.62;;;;;15.30;1.00;;;;;;2284434;60;1133;-85
2022/05/03 01:08:30;0.00;0.00;0.62;0.00;0.00;0.62;;;;;15.60;1.00;;;;;;2284465;60;1105;-87
2022/05/03 01:11:19;0.00;0.00;0.62;0.00;0.00;0.62;;;;;15.70;1.00;;;;;;2284401;60;1363;-85
2022/05/03 01:13:53;234990.00;0.78;406.13;81043.00;0.27;140.84;;;;;16.00;1.00;;;;;;2284255;60;1997;-86
2022/05/03 01:16:31;168651.00;0.56;291.94;80723.00;0.27;140.29;;;;;16.30;1.00;;;;;;2284266;60;1088;-86
2022/05/03 01:19:11;179856.00;0.60;311.24;83676.00;0.28;145.39;;;;;16.40;1.00;;;;;;2284392;60;1067;-85
2022/05/03 01:22:04;228524.00;0.76;395.01;80171.00;0.27;139.33;;;;;16.50;1.00;;;;;;2284329;60;1366;-86
2022/05/03 01:25:00;238301.00;0.79;411.83;74294.00;0.25;129.18;;;;;16.20;1.00;;;;;;2284341;60;1258;-85
2022/05/03 01:27:52;249978.00;0.83;431.91;79063.00;0.26;137.42;;;;;16.20;1.00;;;;;;2283308;60;1132;-86
2022/05/03 01:30:22;254818.00;0.85;440.24;76714.00;0.26;133.36;;;;;16.40;1.00;;;;;;2284330;60;1389;-86
2022/05/03 01:32:53;105062.00;0.35;182.31;0.00;0.00;0.62;;;;;16.30;1.00;;;;;;2284305;60;1155;-86
2022/05/03 01:35:24;314279.00;1.05;542.46;108492.00;0.36;188.23;;;;;15.90;1.00;;;;;;2284316;60;1975;-85
2022/05/03 01:38:19;237652.00;0.79;410.71;72687.00;0.24;126.40;;;;;16.00;1.00;;;;;;2284295;60;1113;-86
2022/05/03 01:41:07;251611.00;0.84;434.72;82087.00;0.27;142.64;;;;;15.90;1.00;;;;;;2284338;60;1493;-85
2022/05/03 01:44:01;544980.00;1.82;939.31;86653.00;0.29;150.53;;;;;15.60;1.00;;;;;;2283745;60;1101;-86
2022/05/03 01:46:35;179802.00;0.60;311.15;0.00;0.00;0.62;;;;;15.60;1.00;;;;;;2284185;60;1122;-86
2022/05/03 01:52:40;187977.00;0.63;325.23;0.00;0.00;0.62;;;;;15.90;1.00;;;;;;2284319;60;1356;-85
2022/05/03 01:55:19;83616.00;0.28;145.28;0.00;0.00;0.62;;;;;16.00;1.00;;;;;;2277898;60;1987;-85
2022/05/03 01:57:58;112975.00;0.38;195.96;0.00;0.00;0.62;;;;;15.80;1.00;;;;;;2284271;60;1040;-84
2022/05/03 02:00:25;368716.00;1.23;636.03;26983.00;0.09;47.36;;;;;15.90;1.00;;;;;;2284730;60;1496;-85
2022/05/03 02:03:02;551363.00;1.84;950.31;119061.00;0.40;206.46;;;;;15.50;1.00;;;;;;2284835;60;1678;-85
2022/05/03 02:05:52;310759.00;1.04;536.41;78266.00;0.26;136.04;;;;;15.10;1.00;;;;;;2284969;60;1088;-87
2022/05/03 02:08:22;85459.00;0.28;148.47;0.00;0.00;0.62;;;;;15.40;1.00;;;;;;2284972;60;1058;-86
2022/05/03 02:11:03;122129.00;0.41;211.75;0.00;0.00;0.62;;;;;14.70;1.00;;;;;;2284879;60;1395;-86
2022/05/03 02:16:48;5298.00;0.02;9.80;0.00;0.00;0.62;;;;;14.80;1.00;;;;;;2284890;60;641;-85
2022/05/03 02:19:44;73404.00;0.24;127.64;0.00;0.00;0.62;;;;;14.90;1.00;;;;;;2284939;60;1121;-85
2022/05/03 02:22:32;43813.00;0.15;76.48;0.00;0.00;0.62;;;;;15.20;1.00;;;;;;2284854;60;1549;-86
2022/05/03 02:25:08;43416.00;0.14;75.80;0.00;0.00;0.62;;;;;15.00;1.00;;;;;;2284897;60;1352;-85
2022/05/03 02:27:39;36382.00;0.12;63.63;0.00;0.00;0.62;;;;;15.40;1.00;;;;;;2284926;60;1075;-85
2022/05/03 02:30:09;85714.00;0.29;148.91;0.00;0.00;0.62;;;;;15.10;1.00;;;;;;2284789;60;1469;-87
2022/05/03 02:32:51;210053.00;0.70;363.23;0.00;0.00;0.62;;;;;15.10;1.00;;;;;;2284839;60;1143;-86
2022/05/03 02:35:22;46656.00;0.16;81.40;0.00;0.00;0.62;;;;;14.80;1.00;;;;;;2284844;60;1984;-85
2022/05/03 02:37:50;54554.00;0.18;95.06;0.00;0.00;0.62;;;;;15.20;1.00;;;;;;2284828;60;1709;-85
2022/05/03 02:40:23;176923.00;0.59;306.19;0.00;0.00;0.62;;;;;15.40;1.00;;;;;;2284871;60;1279;-85
2022/05/03 02:42:52;161467.00;0.54;279.57;0.00;0.00;0.62;;;;;15.30;1.00;;;;;;2284873;60;1090;-86
2022/05/03 02:45:20;243683.00;0.81;421.09;0.00;0.00;0.62;;;;;14.90;1.00;;;;;;2284859;60;1097;-86
2022/05/03 02:47:59;157150.00;0.52;272.13;0.00;0.00;0.62;;;;;14.60;1.00;;;;;;2284863;60;1050;-86
2022/05/03 02:50:37;72399.00;0.24;125.91;0.00;0.00;0.62;;;;;15.20;1.00;;;;;;2284788;60;1372;-86
2022/05/03 02:53:09;237.00;0.00;1.03;0.00;0.00;0.62;;;;;15.90;1.00;;;;;;2284880;60;1016;-86
2022/05/03 02:55:49;0.00;0.00;0.62;0.00;0.00;0.62;;;;;16.20;1.00;;;;;;2284807;60;1998;-86
2022/05/03 02:58:41;276254.00;0.92;477.10;23098.00;0.08;40.63;;;;;16.30;1.00;;;;;;2284695;60;1134;-85
2022/05/03 03:04:10;0.00;0.00;0.62;0.00;0.00;0.62;;;;;15.90;1.00;;;;;;2284764;60;759;-85
2022/05/03 03:06:43;79565.00;0.27;138.29;0.00;0.00;0.62;;;;;15.60;1.00;;;;;;2284849;60;1118;-85
2022/05/03 03:09:22;48524.00;0.16;84.63;0.00;0.00;0.62;;;;;15.40;1.00;;;;;;2284750;60;1130;-88
2022/05/03 03:11:59;113642.00;0.38;197.11;29718.00;0.10;52.09;;;;;15.20;1.00;;;;;;2284701;60;1471;-88
2022/05/03 03:14:36;0.00;0.00;0.62;0.00;0.00;0.62;;;;;14.80;1.00;;;;;;2284721;60;1994;-86
2022/05/03 03:17:07;0.00;0.00;0.62;0.00;0.00;0.62;;;;;14.50;1.00;;;;;;2284724;60;1086;-85
2022/05/03 03:19:50;55906.00;0.19;97.40;0.00;0.00;0.62;;;;;14.30;1.00;;;;;;2284830;60;1062;-86
2022/05/03 03:22:21;34956.00;0.12;61.16;0.00;0.00;0.62;;;;;14.30;1.00;;;;;;2281992;60;1688;-85
2022/05/03 03:24:50;206648.00;0.69;357.37;0.00;0.00;0.62;;;;;13.90;1.00;;;;;;2284680;60;1081;-86
2022/05/03 03:27:22;365253.00;1.22;630.08;0.00;0.00;0.62;;;;;13.40;1.00;;;;;;2284725;60;1125;-86
2022/05/03 03:29:53;401646.00;1.34;692.63;0.00;0.00;0.62;;;;;13.20;1.00;;;;;;2284690;60;1086;-85
2022/05/03 03:32:24;198092.00;0.66;342.64;0.00;0.00;0.62;;;;;12.90;1.00;;;;;;2284674;60;2055;-86
2022/05/03 03:34:54;180049.00;0.60;311.57;0.00;0.00;0.62;;;;;13.10;1.00;;;;;;2284662;60;1988;-85
2022/05/03 03:37:24;322683.00;1.08;556.91;0.00;0.00;0.62;;;;;13.50;1.00;;;;;;2284700;60;1504;-85
2022/05/03 03:39:51;246896.00;0.82;426.61;0.00;0.00;0.62;;;;;13.90;1.00;;;;;;2284622;60;1398;-86
2022/05/03 03:42:19;398004.00;1.33;686.37;23613.00;0.08;41.53;;;;;14.30;1.00;;;;;;2284638;60;1112;-85
2022/05/03 03:44:46;271363.00;0.90;468.69;0.00;0.00;0.62;;;;;15.00;1.00;;;;;;2284597;60;1114;-86
2022/05/03 03:47:15;268001.00;0.89;462.91;0.00;0.00;0.62;;;;;15.40;1.00;;;;;;2284607;60;959;-86
2022/05/03 03:49:43;615692.00;2.05;1061.32;0.00;0.00;0.62;;;;;15.60;1.00;;;;;;2284657;60;1116;-86
2022/05/03 03:52:11;239375.00;0.80;413.68;0.00;0.00;0.62;;;;;15.20;1.00;;;;;;2284499;60;1682;-85
2022/05/03 03:54:41;328023.00;1.09;566.09;0.00;0.00;0.62;;;;;15.10;1.00;;;;;;2284548;60;1911;-87
2022/05/03 03:57:08;525987.00;1.75;906.58;0.00;0.00;0.62;;;;;15.10;1.00;;;;;;2284667;60;1087;-86
2022/05/03 03:59:37;255643.00;0.85;441.66;0.00;0.00;0.62;;;;;15.50;1.00;;;;;;2284593;60;1147;-87
2022/05/03 04:02:04;309323.00;1.03;533.95;11409.00;0.04;20.39;;;;;15.50;1.00;;;;;;2284549;60;1386;-86
2022/05/03 04:04:33;101157.00;0.34;175.57;0.00;0.00;0.62;;;;;15.40;1.00;;;;;;2284649;60;1086;-86
2022/05/03 04:07:00;224235.00;0.75;387.63;0.00;0.00;0.62;;;;;15.20;1.00;;;;;;2284494;60;1099;-85
2022/05/03 04:09:27;268632.00;0.90;463.99;0.00;0.00;0.62;;;;;15.40;1.00;;;;;;2284648;60;1002;-86
2022/05/03 04:11:56;275624.00;0.92;476.01;0.00;0.00;0.62;;;;;15.60;1.00;;;;;;2284631;60;1262;-86
2022/05/03 04:14:23;470429.00;1.57;810.93;102082.00;0.34;177.17;;;;;15.50;1.00;;;;;;2284504;60;1997;-85
2022/05/03 04:16:50;146254.00;0.49;253.35;0.00;0.00;0.62;;;;;15.50;1.00;;;;;;2284611;60;1103;-86
2022/05/03 04:19:16;500395.00;1.67;862.50;0.00;0.00;0.62;;;;;15.30;1.00;;;;;;2284579;60;1101;-86
2022/05/03 04:21:43;467354.00;1.56;805.64;0.00;0.00;0.62;;;;;15.30;1.00;;;;;;2284353;60;1390;-85
2022/05/03 04:24:10;440705.00;1.47;759.80;0.00;0.00;0.62;;;;;15.40;1.00;;;;;;2284508;60;1174;-85
2022/05/03 04:26:37;528046.00;1.76;910.13;78918.00;0.26;137.17;;;;;15.00;1.00;;;;;;2284539;60;1098;-86
2022/05/03 04:29:06;514254.00;1.71;886.37;89187.00;0.30;154.90;;;;;15.00;1.00;;;;;;2284550;60;1066;-86
2022/05/03 04:31:34;450893.00;1.50;777.32;85392.00;0.28;148.35;;;;;15.00;1.00;;;;;;2284490;60;1566;-85
2022/05/03 04:34:03;411662.00;1.37;709.85;95033.00;0.32;165.00;;;;;14.70;1.00;;;;;;2284326;60;1133;-87
2022/05/03 04:36:30;400698.00;1.34;691.01;82970.00;0.28;144.17;;;;;14.60;1.00;;;;;;2284532;60;1101;-85
2022/05/03 04:38:57;320068.00;1.07;552.41;84661.00;0.28;147.09;;;;;14.70;1.00;;;;;;2284507;60;1091;-87
2022/05/03 04:41:24;484249.00;1.61;834.71;78550.00;0.26;136.53;;;;;14.80;1.00;;;;;;2284323;60;1351;-86
2022/05/03 04:43:51;272277.00;0.91;470.26;67396.00;0.22;117.26;;;;;14.90;1.00;;;;;;2284450;60;1086;-87
2022/05/03 04:46:20;502965.00;1.68;866.93;85168.00;0.28;147.96;;;;;14.70;1.00;;;;;;2284438;60;1119;-85
2022/05/03 04:48:48;375285.00;1.25;647.32;73009.00;0.24;126.96;;;;;14.40;1.00;;;;;;2284480;60;1133;-85
2022/05/03 04:51:19;591513.00;1.97;1019.57;74950.00;0.25;130.31;;;;;14.40;1.00;;;;;;2284385;60;1423;-85
2022/05/03 04:53:47;461341.00;1.54;795.29;126032.00;0.42;218.49;;;;;14.40;1.00;;;;;;2284416;60;1195;-86
2022/05/03 04:56:18;683934.00;2.28;1179.39;130490.00;0.43;226.17;;;;;14.50;1.00;;;;;;2284369;60;2013;-85
2022/05/03 04:58:46;436007.00;1.45;751.72;20541.00;0.07;36.21;;;;;14.40;1.00;;;;;;2284410;60;1159;-85
2022/05/03 05:01:13;453161.00;1.51;781.22;28437.00;0.09;49.88;;;;;14.30;1.00;;;;;;2284405;60;1354;-85
2022/05/03 05:03:41;287706.00;0.96;496.79;0.00;0.00;0.62;;;;;14.30;1.00;;;;;;2284468;60;1114;-85
2022/05/03 05:06:09;313003.00;1.04;540.27;0.00;0.00;0.62;;;;;14.20;1.00;;;;;;2284424;60;1133;-86
2022/05/03 05:08:36;345277.00;1.15;595.74;0.00;0.00;0.62;;;;;14.00;1.00;;;;;;2284374;60;1601;-86
2022/05/03 05:11:03;204798.00;0.68;354.18;0.00;0.00;0.62;;;;;14.20;1.00;;;;;;2284283;60;1287;-86
2022/05/03 05:13:30;267397.00;0.89;461.87;0.00;0.00;0.62;;;;;14.30;1.00;;;;;;2284363;60;1054;-85
2022/05/03 05:15:57;268922.00;0.90;464.49;0.00;0.00;0.62;;;;;14.10;1.00;;;;;;2284234;60;2030;-86
2022/05/03 05:18:25;425409.00;1.42;733.49;0.00;0.00;0.62;;;;;14.10;1.00;;;;;;2284204;60;1089;-86
2022/05/03 05:20:53;343052.00;1.14;591.92;0.00;0.00;0.62;;;;;14.10;1.00;;;;;;2284332;60;1423;-86
2022/05/03 05:23:20;299550.00;1.00;517.15;0.00;0.00;0.62;;;;;14.10;1.00;;;;;;2284332;60;1086;-87
2022/05/03 05:25:48;268726.00;0.90;464.15;0.00;0.00;0.62;;;;;14.20;1.00;;;;;;2284168;60;1109;-84
2022/05/03 05:28:16;258102.00;0.86;445.88;0.00;0.00;0.62;;;;;14.10;1.00;;;;;;2284269;60;1120;-87
2022/05/03 05:30:43;271147.00;0.90;468.32;0.00;0.00;0.62;;;;;14.30;1.00;;;;;;2284417;60;1278;-86
2022/05/03 05:33:11;283528.00;0.95;489.60;0.00;0.00;0.62;;;;;15.10;1.00;;;;;;2284255;60;1031;-86
2022/05/03 05:35:40;248232.00;0.83;428.91;0.00;0.00;0.62;;;;;16.60;1.00;;;;;;2284913;60;1992;-85
2022/05/03 05:38:08;221165.00;0.74;382.35;0.00;0.00;0.62;;;;;18.20;1.00;;;;;;2284997;60;1047;-85
2022/05/03 05:40:35;300326.00;1.00;518.48;0.00;0.00;0.62;;;;;19.50;1.00;;;;;;2284914;60;1393;-85
2022/05/03 05:43:03;223164.00;0.74;385.79;0.00;0.00;0.62;;;;;20.00;1.00;;;;;;2284918;60;2180;-84
2022/05/03 05:45:30;282086.00;0.94;487.12;0.00;0.00;0.62;;;;;20.40;1.00;;;;;;2284972;60;1116;-85
2022/05/03 05:47:57;156803.00;0.52;271.53;0.00;0.00;0.62;;;;;20.90;1.00;;;;;;2284964;60;1754;-87
2022/05/03 05:50:24;363993.00;1.21;627.91;0.00;0.00;0.62;;;;;21.00;1.00;;;;;;2284930;60;1430;-86
2022/05/03 05:55:37;7719.00;0.03;14.00;0.00;0.00;0.62;;;;;21.00;1.00;;;;;;2284978;60;1980;-86
2022/05/03 05:58:04;237517.00;0.79;410.48;0.00;0.00;0.62;;;;;21.10;1.00;;;;;;2284946;60;1114;-86
2022/05/03 06:00:31;320568.00;1.07;553.27;0.00;0.00;0.62;;;;;21.50;1.00;;;;;;2284840;60;1297;-86
2022/05/03 06:02:59;168092.00;0.56;290.98;0.00;0.00;0.62;;;;;22.50;1.00;;;;;;2284953;60;1986;-86
2022/05/03 06:05:27;209598.00;0.70;362.44;0.00;0.00;0.62;;;;;23.00;1.00;;;;;;2284863;60;1560;-86
2022/05/03 06:07:54;208447.00;0.69;360.46;0.00;0.00;0.62;;;;;23.20;1.00;;;;;;2284810;60;1127;-85
2022/05/03 06:10:21;183175.00;0.61;316.96;0.00;0.00;0.62;;;;;24.10;1.00;;;;;;2284562;60;1251;-87
2022/05/03 06:12:49;229532.00;0.77;396.74;0.00;0.00;0.62;;;;;24.30;1.00;;;;;;2284110;60;1090;-85
2022/05/03 06:15:19;404735.00;1.35;697.95;58423.00;0.19;101.75;;;;;24.40;1.00;;;;;;2284788;60;1923;-84
2022/05/03 06:17:46;187618.00;0.63;324.61;0.00;0.00;0.62;;;;;24.80;1.00;;;;;;2284805;60;1142;-86
2022/05/03 06:20:14;246626.00;0.82;426.15;0.00;0.00;0.62;;;;;25.60;1.00;;;;;;2284907;60;1393;-85
2022/05/03 06:22:40;278498.00;0.93;480.96;0.00;0.00;0.62;;;;;25.90;1.00;;;;;;2284976;60;1075;-85
2022/05/03 06:25:09;247918.00;0.83;428.37;0.00;0.00;0.62;;;;;26.30;1.00;;;;;;2285009;60;1101;-85
2022/05/03 06:27:36;287520.00;0.96;496.47;0.00;0.00;0.62;;;;;26.80;1.00;;;;;;2284823;60;1517;-86
2022/05/03 06:30:06;325241.00;1.08;561.31;0.00;0.00;0.62;;;;;26.90;1.00;;;;;;2284894;60;1364;-86
2022/05/03 06:32:34;106685.00;0.36;185.11;0.00;0.00;0.62;;;;;27.10;1.00;;;;;;2284810;60;1052;-86
2022/05/03 06:35:01;202402.00;0.67;350.06;0.00;0.00;0.62;;;;;26.80;1.00;;;;;;2284874;60;1917;-85
2022/05/03 06:37:27;217709.00;0.73;376.40;0.00;0.00;0.62;;;;;26.90;1.00;;;;;;2284771;60;1066;-86
2022/05/03 06:39:54;192849.00;0.64;333.61;0.00;0.00;0.62;;;;;27.30;1.00;;;;;;2284813;60;1405;-86
2022/05/03 06:42:21;61253.00;0.20;106.64;0.00;0.00;0.62;;;;;27.40;1.00;;;;;;2284836;60;1120;-84
2022/05/03 06:44:48;160719.00;0.54;278.28;0.00;0.00;0.62;;;;;27.50;1.00;;;;;;2284739;60;1127;-87
2022/05/03 06:47:17;99296.00;0.33;172.36;0.00;0.00;0.62;;;;;27.70;1.00;;;;;;2284738;60;1167;-85
2022/05/03 06:49:45;75825.00;0.25;131.83;0.00;0.00;0.62;;;;;27.80;1.00;;;;;;2284781;60;1008;-86
2022/05/03 06:52:12;571591.00;1.91;985.19;0.00;0.00;0.62;;;;;28.20;1.00;;;;;;2284656;60;1403;-87
2022/05/03 06:54:39;447201.00;1.49;770.97;125801.00;0.42;218.09;;;;;28.70;1.00;;;;;;2284760;60;1078;-87
2022/05/03 06:57:06;219674.00;0.73;379.78;0.00;0.00;0.62;;;;;28.80;1.00;;;;;;2284564;60;2014;-85
2022/05/03 06:59:33;303078.00;1.01;523.21;0.00;0.00;0.62;;;;;28.20;1.00;;;;;;2284714;60;1220;-86
2022/05/03 07:02:00;322040.00;1.07;555.80;0.00;0.00;0.62;;;;;28.70;1.00;;;;;;2284512;60;1296;-86
2022/05/03 07:04:28;198572.00;0.66;343.47;0.00;0.00;0.62;;;;;28.70;1.00;;;;;;2284634;60;1308;-87
2022/05/03 07:06:55;253088.00;0.84;437.26;0.00;0.00;0.62;;;;;27.70;1.00;;;;;;2284646;60;1163;-84
2022/05/03 07:09:22;170590.00;0.57;295.28;0.00;0.00;0.62;;;;;26.80;1.00;;;;;;2284694;60;1655;-83
2022/05/03 07:11:48;328415.00;1.09;566.76;9191.00;0.03;16.55;;;;;26.30;1.00;;;;;;2284686;60;1643;-85
2022/05/03 07:14:16;405901.00;1.35;699.95;77823.00;0.26;135.28;;;;;26.30;1.00;;;;;;2284626;60;1083;-85
2022/05/03 07:16:43;444407.00;1.48;766.16;73345.00;0.24;127.54;;;;;26.60;1.00;;;;;;2284739;60;2001;-85
2022/05/03 07:24:51;87478.00;0.29;151.95;0.00;0.00;0.62;;;;;26.10;1.00;;;;;;2284367;60;1346;-85
2022/05/03 07:27:18;136679.00;0.46;236.85;0.00;0.00;0.62;;;;;26.70;1.00;;;;;;2284752;60;1102;-84
2022/05/03 07:29:45;182242.00;0.61;315.35;0.00;0.00;0.62;;;;;26.70;1.00;;;;;;2284686;60;1158;-85
2022/05/03 07:32:12;382808.00;1.28;660.25;0.00;0.00;0.62;;;;;27.00;1.00;;;;;;2284672;60;1297;-85
2022/05/03 07:34:39;187109.00;0.62;323.73;0.00;0.00;0.62;;;;;27.50;1.00;;;;;;2284762;60;1086;-86
2022/05/03 07:37:09;391298.00;1.30;674.85;41484.00;0.14;72.46;;;;;27.80;1.00;;;;;;2284678;60;2008;-84
2022/05/03 07:39:35;409058.00;1.36;705.38;68998.00;0.23;120.03;;;;;27.20;1.00;;;;;;2284642;60;1097;-83
2022/05/03 07:42:03;192858.00;0.64;333.63;0.00;0.00;0.62;;;;;27.10;1.00;;;;;;2284535;60;1333;-86
2022/05/03 07:44:29;146838.00;0.49;254.36;0.00;0.00;0.62;;;;;27.30;1.00;;;;;;2284521;60;1010;-86
2022/05/03 07:46:57;140173.00;0.47;242.87;0.00;0.00;0.62;;;;;27.60;1.00;;;;;;2284684;60;1027;-84
2022/05/03 07:49:24;146091.00;0.49;253.07;0.00;0.00;0.62;;;;;28.20;1.00;;;;;;2284651;60;1113;-86
2022/05/03 07:51:51;529218.00;1.76;912.14;16975.00;0.06;30.03;;;;;28.60;1.00;;;;;;2284435;60;1554;-85
2022/05/03 07:54:19;130717.00;0.44;226.57;0.00;0.00;0.62;;;;;28.90;1.00;;;;;;2284569;60;1127;-85
2022/05/03 07:56:46;443502.00;1.48;764.61;109750.00;0.37;190.40;;;;;28.40;1.00;;;;;;2284259;60;1935;-85
2022/05/03 07:59:13;69147.00;0.23;120.29;0.00;0.00;0.62;;;;;28.70;1.00;;;;;;2284566;60;1107;-86
2022/05/03 08:01:41;143015.00;0.48;247.77;0.00;0.00;0.62;;;;;28.90;1.00;;;;;;2284579;60;1373;-85
2022/05/03 08:04:08;324325.00;1.08;559.73;0.00;0.00;0.62;;;;;28.80;1.00;;;;;;2284539;60;985;-85
2022/05/03 08:06:36;297080.00;0.99;512.90;0.00;0.00;0.62;;;;;29.60;1.00;;;;;;2284607;60;1147;-85
2022/05/03 08:09:03;80788.00;0.27;140.40;0.00;0.00;0.62;;;;;29.00;1.00;;;;;;2284576;60;2379;-86
2022/05/03 08:11:32;313778.00;1.05;541.60;0.00;0.00;0.62;;;;;28.90;1.00;;;;;;2284385;60;1408;-88
2022/05/03 08:13:59;309851.00;1.03;534.85;0.00;0.00;0.62;;;;;28.90;1.00;;;;;;2284485;60;1006;-87
2022/05/03 08:16:27;128307.00;0.43;222.41;0.00;0.00;0.62;;;;;29.10;1.00;;;;;;2284501;60;2004;-86
2022/05/03 08:18:54;240465.00;0.80;415.55;0.00;0.00;0.62;;;;;29.60;1.00;;;;;;2284391;60;1243;-85
2022/05/03 08:21:20;208718.00;0.70;360.93;0.00;0.00;0.62;;;;;29.20;1.00;;;;;;2284180;60;1278;-86
2022/05/03 08:23:47;274763.00;0.92;474.53;0.00;0.00;0.62;;;;;29.00;1.00;;;;;;2284491;60;1123;-87
2022/05/03 08:26:15;130378.00;0.43;225.98;0.00;0.00;0.62;;;;;29.00;1.00;;;;;;2284467;60;1149;-85
2022/05/03 08:28:43;269790.00;0.90;465.98;0.00;0.00;0.62;;;;;29.20;1.00;;;;;;2284561;60;1152;-87
2022/05/03 08:31:10;87999.00;0.29;152.85;0.00;0.00;0.62;;;;;29.30;1.00;;;;;;2284524;60;1381;-87
2022/05/03 08:33:37;214897.00;0.72;371.56;0.00;0.00;0.62;;;;;29.70;1.00;;;;;;2284459;60;1066;-86
2022/05/03 08:36:05;205616.00;0.69;355.59;0.00;0.00;0.62;;;;;29.20;1.00;;;;;;2284505;60;1919;-86
2022/05/03 08:44:03;0.00;0.00;0.62;0.00;0.00;0.62;;;;;28.20;1.00;;;;;;2287639;55;3755;-87
2022/05/03 08:46:33;258106.00;0.86;445.89;0.00;0.00;0.62;;;;;29.00;1.00;;;;;;2272312;61;1115;-86
2022/05/03 08:49:03;111068.00;0.37;192.67;0.00;0.00;0.62;;;;;28.60;1.00;;;;;;2272012;61;1036;-87
2022/05/03 08:51:32;118795.00;0.40;206.00;0.00;0.00;0.62;;;;;28.30;1.00;;;;;;2271908;61;1392;-87
2022/05/03 08:54:00;261030.00;0.87;450.92;0.00;0.00;0.62;;;;;28.20;1.00;;;;;;2272195;61;2219;-84
2022/05/03 08:56:27;298131.00;0.99;514.71;0.00;0.00;0.62;;;;;26.70;1.00;;;;;;2272179;61;1927;-84
2022/05/03 08:58:55;222077.00;0.74;383.92;0.00;0.00;0.62;;;;;26.50;1.00;;;;;;2272197;61;1074;-85
2022/05/03 09:01:24;394072.00;1.31;679.61;0.00;0.00;0.62;;;;;26.70;1.00;;;;;;2272176;61;1347;-86
2022/05/03 09:03:52;321822.00;1.07;555.43;0.00;0.00;0.62;;;;;27.10;1.00;;;;;;2272227;61;1105;-85
2022/05/03 09:06:19;280071.00;0.93;483.66;0.00;0.00;0.62;;;;;25.90;1.00;;;;;;2272110;61;1070;-87
2022/05/03 09:08:51;116819.00;0.39;202.60;0.00;0.00;0.62;;;;;24.90;1.00;;;;;;2272157;61;1508;-86
2022/05/03 09:11:20;440545.00;1.47;759.52;0.00;0.00;0.62;;;;;24.50;1.00;;;;;;2272141;61;2031;-86
2022/05/03 09:13:47;692630.00;2.31;1194.46;0.00;0.00;0.62;;;;;24.90;1.00;;;;;;2272053;61;1432;-86
2022/05/03 09:16:16;404991.00;1.35;698.39;67093.00;0.22;116.74;;;;;24.80;1.00;;;;;;2272173;61;1909;-86
2022/05/03 09:18:46;374477.00;1.25;645.93;112789.00;0.38;195.64;;;;;25.30;1.00;;;;;;2272171;61;1059;-85
2022/05/03 09:24:09;93178.00;0.31;161.79;0.00;0.00;0.62;;;;;24.40;1.00;;;;;;2272227;61;687;-86
2022/05/03 09:26:37;183592.00;0.61;317.68;82396.00;0.27;143.18;;;;;23.60;1.00;;;;;;2272160;61;1123;-85
2022/05/03 09:29:07;215806.00;0.72;373.13;84752.00;0.28;147.24;;;;;23.40;1.00;;;;;;2272198;61;1142;-86
2022/05/03 09:31:36;180186.00;0.60;311.81;72708.00;0.24;126.44;;;;;23.80;1.00;;;;;;2272195;61;1270;-86
2022/05/03 09:34:18;0.00;0.00;0.62;0.00;0.00;0.62;;;;;23.80;1.00;;;;;;2272216;61;1111;-86
2022/05/03 09:36:46;208650.00;0.70;360.81;79725.00;0.27;138.56;;;;;23.80;1.00;;;;;;2272095;61;1923;-86
2022/05/03 09:39:23;263407.00;0.88;455.01;70218.00;0.23;122.14;;;;;23.80;1.00;;;;;;2272127;61;1098;-86
2022/05/03 09:42:11;302500.00;1.01;522.22;78606.00;0.26;136.63;;;;;24.30;1.00;;;;;;2272079;61;1391;-87
2022/05/03 09:44:51;252296.00;0.84;435.90;76109.00;0.25;132.32;;;;;24.50;1.00;;;;;;2271995;61;1086;-86
2022/05/03 09:47:19;345809.00;1.15;596.66;0.00;0.00;0.62;;;;;24.50;1.00;;;;;;2272158;61;1022;-87
2022/05/03 09:49:47;401922.00;1.34;693.11;18325.00;0.06;32.37;;;;;24.20;1.00;;;;;;2272067;61;1548;-86
2022/05/03 09:52:27;341094.00;1.14;588.55;74412.00;0.25;129.38;;;;;23.60;1.00;;;;;;2272149;61;1249;-86
2022/05/03 09:54:59;331761.00;1.11;572.51;80336.00;0.27;139.62;;;;;23.40;1.00;;;;;;2272098;61;1102;-86
2022/05/03 09:57:29;418525.00;1.40;721.65;84980.00;0.28;147.64;;;;;22.70;1.00;;;;;;2272051;61;2249;-87
2022/05/03 09:59:58;254453.00;0.85;439.61;68639.00;0.23;119.41;;;;;22.90;1.00;;;;;;2271979;61;1358;-86
2022/05/03 10:02:27;628204.00;2.09;1082.94;80394.00;0.27;139.72;;;;;22.80;1.00;;;;;;2271994;61;1356;-87
2022/05/03 10:04:58;119813064.00;399.38;69673088.00;79077.00;0.26;137.44;;;;;23.50;1.00;;;;;;2272137;61;1051;-86
2022/05/03 10:07:25;331623.00;1.11;572.28;82030.00;0.27;142.54;;;;;23.70;1.00;;;;;;2268088;61;1167;-86
2022/05/03 10:09:53;449514.00;1.50;774.95;74549.00;0.25;129.62;;;;;23.20;1.00;;;;;;2268070;61;1113;-85
2022/05/03 10:12:20;442067.00;1.47;762.14;79037.00;0.26;137.37;;;;;22.90;1.00;;;;;;2267940;61;1688;-85
2022/05/03 10:14:50;703023.00;2.34;1212.48;131224.00;0.44;227.44;;;;;23.40;1.00;;;;;;2267926;61;1522;-85
2022/05/03 10:22:56;256896.00;0.86;443.81;70691.00;0.24;122.95;;;;;23.80;1.00;;;;;;2268490;61;1315;-88
2022/05/03 10:25:29;596524.00;1.99;1028.22;82108.00;0.27;142.68;;;;;23.70;1.00;;;;;;2268713;61;1028;-87
2022/05/03 10:27:59;612755.00;2.04;1056.25;76506.00;0.26;133.00;;;;;23.40;1.00;;;;;;2268722;61;1086;-86
2022/05/03 10:30:28;334842.00;1.12;577.81;0.00;0.00;0.62;;;;;23.40;1.00;;;;;;2268674;61;1558;-86
2022/05/03 10:33:37;147115.00;0.49;254.84;0.00;0.00;0.62;;;;;23.20;1.00;;;;;;2268628;61;1776;-85
2022/05/03 10:36:43;146796.00;0.49;254.29;0.00;0.00;0.62;;;;;23.40;1.00;;;;;;2264791;61;2013;-87
2022/05/03 10:39:25;772022.00;2.57;1332.37;224237.00;0.75;387.63;;;;;23.10;1.00;;;;;;2268576;61;1516;-85
2022/05/03 10:41:54;397008.00;1.32;684.66;21983.00;0.07;38.70;;;;;23.20;1.00;;;;;;2268572;61;1662;-85
2022/05/03 10:44:44;23427.00;0.08;41.20;0.00;0.00;0.62;;;;;23.40;1.00;;;;;;2268576;61;986;-86